Time;durP1;ratioP1;P1;durP2;ratioP2;P2;SDS_P1;SDS_P2;PMS_P1;PMS_P2;Temp;Humidity;BMP_temperature;BMP_pressure;BME280_temperature;BME280_humidity;BME280_pressure;Samples;Min_cycle;Max_cycle;Signal;HPM_P1;HPM_P2
2023/04/22 00:00:30;;;;;;;62.13;24.20;;;;;;;10.36;100.00;100720.47;5034758;28;20076;-65
2023/04/22 00:03:00;;;;;;;86.63;30.42;;;;;;;10.36;100.00;100715.03;5041527;28;20048;-63
2023/04/22 00:05:28;;;;;;;31.65;14.48;;;;;;;10.36;100.00;100714.22;5029231;28;20034;-65
2023/04/22 00:07:56;;;;;;;25.05;11.63;;;;;;;10.34;100.00;100710.94;5052348;28;20494;-63
2023/04/22 00:10:24;;;;;;;19.08;10.07;;;;;;;10.33;100.00;100706.59;5055729;28;20123;-64
2023/04/22 00:12:52;;;;;;;16.38;7.90;;;;;;;10.28;100.00;100707.41;5046905;28;20045;-62
2023/04/22 00:15:20;;;;;;;11.90;6.70;;;;;;;10.23;100.00;100700.00;5040762;28;20148;-63
2023/04/22 00:17:48;;;;;;;22.17;9.43;;;;;;;10.20;100.00;100708.72;5036221;28;20500;-62
2023/04/22 00:20:20;;;;;;;34.35;15.95;;;;;;;10.16;100.00;100699.44;5050995;28;20046;-64
2023/04/22 00:22:48;;;;;;;55.53;21.58;;;;;;;10.16;100.00;100699.44;5034256;28;20052;-65
2023/04/22 00:25:16;;;;;;;61.28;24.52;;;;;;;10.14;100.00;100701.59;5048698;28;20124;-62
2023/04/22 00:27:44;;;;;;;44.95;18.65;;;;;;;10.16;100.00;100701.34;5034079;28;20050;-62
2023/04/22 00:30:12;;;;;;;21.67;10.65;;;;;;;10.09;100.00;100703.50;5017421;28;20073;-64
2023/04/22 00:32:39;;;;;;;16.75;8.27;;;;;;;10.07;100.00;100701.03;5033669;28;20115;-61
2023/04/22 00:35:08;;;;;;;11.70;6.43;;;;;;;10.13;100.00;100701.88;5047172;28;20075;-62
2023/04/22 00:37:35;;;;;;;8.52;5.07;;;;;;;10.21;100.00;100701.34;5046803;28;20076;-63
2023/04/22 00:40:05;;;;;;;10.38;5.00;;;;;;;10.18;100.00;100691.81;5034630;28;20148;-63
2023/04/22 00:42:33;;;;;;;5.13;3.88;;;;;;;10.17;100.00;100695.63;5017244;28;20084;-63
2023/04/22 00:45:01;;;;;;;7.88;4.10;;;;;;;10.18;100.00;100697.25;5024740;28;20041;-63
2023/04/22 00:47:31;;;;;;;7.90;4.07;;;;;;;10.26;100.00;100698.63;5036326;28;20049;-65
2023/04/22 00:49:58;;;;;;;7.10;4.45;;;;;;;10.32;100.00;100697.59;5034093;28;20049;-64
2023/04/22 00:52:26;;;;;;;8.25;4.57;;;;;;;10.31;100.00;100697.88;5017184;28;20439;-62
2023/04/22 00:54:54;;;;;;;6.55;4.40;;;;;;;10.29;100.00;100694.59;5017764;28;20124;-62
2023/04/22 00:57:22;;;;;;;9.25;4.38;;;;;;;10.28;100.00;100701.09;5046818;28;20124;-62
2023/04/22 00:59:50;;;;;;;6.63;4.50;;;;;;;10.24;100.00;100696.19;5033330;28;20053;-64
2023/04/22 01:02:18;;;;;;;7.60;4.60;;;;;;;10.23;100.00;100697.28;5033661;28;20091;-62
2023/04/22 01:04:46;;;;;;;6.85;4.70;;;;;;;10.24;100.00;100700.81;5032565;28;20397;-61
2023/04/22 01:07:14;;;;;;;6.82;4.05;;;;;;;10.21;100.00;100696.72;5028111;28;20100;-62
2023/04/22 01:09:42;;;;;;;6.60;4.30;;;;;;;10.20;100.00;100694.28;5032245;28;20045;-63
2023/04/22 01:12:09;;;;;;;6.07;4.20;;;;;;;10.22;100.00;100692.09;5033913;28;20050;-64
2023/04/22 01:14:37;;;;;;;6.70;4.13;;;;;;;10.27;100.00;100699.44;5015572;28;20046;-62
2023/04/22 01:17:05;;;;;;;6.82;4.38;;;;;;;10.30;100.00;100693.53;5029748;28;20047;-63
2023/04/22 01:19:33;;;;;;;9.20;3.90;;;;;;;10.31;100.00;100686.97;5052324;28;20200;-63
2023/04/22 01:22:01;;;;;;;5.82;4.03;;;;;;;10.35;100.00;100685.34;5053607;28;20119;-62
2023/04/22 01:24:29;;;;;;;6.10;4.45;;;;;;;10.34;100.00;100691.88;5051855;28;20070;-62
2023/04/22 01:26:57;;;;;;;6.57;4.32;;;;;;;10.27;100.00;100681.22;5016549;28;20041;-62
2023/04/22 01:29:25;;;;;;;8.80;4.18;;;;;;;10.21;100.00;100685.00;5032549;28;20060;-63
2023/04/22 01:31:55;;;;;;;8.95;4.57;;;;;;;10.17;100.00;100684.75;5031397;28;20084;-62
2023/04/22 01:34:23;;;;;;;6.72;4.30;;;;;;;10.16;100.00;100682.28;5031555;28;20046;-63
2023/04/22 01:36:50;;;;;;;7.45;3.95;;;;;;;10.14;100.00;100681.72;5035604;28;20040;-63
2023/04/22 01:39:18;;;;;;;8.93;4.68;;;;;;;10.16;100.00;100683.09;5052101;28;20059;-62
2023/04/22 01:41:46;;;;;;;6.90;4.18;;;;;;;10.20;100.00;100677.94;5037329;28;20120;-63
2023/04/22 01:44:15;;;;;;;8.98;4.80;;;;;;;10.23;100.00;100677.41;5025170;28;20045;-63
2023/04/22 01:46:42;;;;;;;6.70;4.15;;;;;;;10.18;100.00;100670.03;5032395;28;20045;-65
2023/04/22 01:49:10;;;;;;;6.22;4.28;;;;;;;10.16;100.00;100677.66;5048562;28;20072;-63
2023/04/22 01:51:38;;;;;;;6.20;4.30;;;;;;;10.18;100.00;100680.94;5019274;28;20072;-61
2023/04/22 01:54:05;;;;;;;7.15;4.20;;;;;;;10.20;100.00;100676.03;5018508;28;20056;-62
2023/04/22 01:56:34;;;;;;;6.63;4.40;;;;;;;10.21;100.00;100674.94;5031498;28;20049;-64
2023/04/22 01:59:01;;;;;;;7.68;4.28;;;;;;;10.23;100.00;100677.41;5024310;28;20489;-66
2023/04/22 02:01:33;;;;;;;7.75;4.00;;;;;;;10.25;100.00;100675.22;5051833;28;20401;-64
2023/04/22 02:04:01;;;;;;;6.00;4.00;;;;;;;10.27;100.00;100672.22;5048039;28;20049;-64
2023/04/22 02:06:30;;;;;;;5.68;3.78;;;;;;;10.30;100.00;100669.00;5032105;28;20121;-62
2023/04/22 02:08:58;;;;;;;7.15;4.53;;;;;;;10.32;100.00;100664.09;5022382;28;20770;-63
2023/04/22 02:11:25;;;;;;;6.15;3.88;;;;;;;10.29;100.00;100664.63;5035186;28;20056;-62
2023/04/22 02:13:53;;;;;;;7.05;4.40;;;;;;;10.21;100.00;100658.59;5034986;28;20049;-63
2023/04/22 02:16:21;;;;;;;7.68;4.47;;;;;;;10.16;100.00;100666.75;5032766;28;20041;-64
2023/04/22 02:18:49;;;;;;;8.52;4.70;;;;;;;10.12;100.00;100660.22;5037057;28;20129;-64
2023/04/22 02:21:16;;;;;;;7.95;4.18;;;;;;;10.11;100.00;100664.03;5056673;28;20474;-63
2023/04/22 02:23:44;;;;;;;6.90;4.28;;;;;;;10.13;100.00;100659.13;5043050;28;20068;-64
2023/04/22 02:26:11;;;;;;;6.22;4.15;;;;;;;10.17;100.00;100665.69;5065012;28;20433;-64
2023/04/22 02:28:40;;;;;;;9.65;4.40;;;;;;;10.17;100.00;100654.81;5048964;28;20049;-65
2023/04/22 02:31:08;;;;;;;6.32;4.25;;;;;;;10.17;100.00;100654.81;5042637;28;20050;-64
2023/04/22 02:33:38;;;;;;;7.45;4.50;;;;;;;10.13;100.00;100661.88;5065342;28;20233;-62
2023/04/22 02:36:09;;;;;;;7.20;4.32;;;;;;;10.15;100.00;100662.41;5049758;28;20059;-63
2023/04/22 02:38:37;;;;;;;6.10;4.05;;;;;;;10.19;100.00;100655.31;5048005;28;20067;-65
2023/04/22 02:41:05;;;;;;;7.03;4.40;;;;;;;10.22;100.00;100649.38;5048186;28;20065;-64
2023/04/22 02:43:36;;;;;;;7.30;4.72;;;;;;;10.25;100.00;100648.00;5050631;28;20053;-63
2023/04/22 02:46:03;;;;;;;6.97;4.35;;;;;;;10.25;100.00;100648.00;5051878;28;20120;-63
2023/04/22 02:48:31;;;;;;;8.70;5.13;;;;;;;10.24;100.00;100652.59;5028858;28;20072;-63
2023/04/22 02:50:59;;;;;;;8.85;4.50;;;;;;;10.17;100.00;100643.91;5035633;28;20482;-63
2023/04/22 02:53:27;;;;;;;7.10;4.60;;;;;;;10.16;100.00;100639.53;5050293;28;20050;-63
2023/04/22 02:55:55;;;;;;;7.97;4.78;;;;;;;10.16;100.00;100639.53;5040243;28;20503;-63
2023/04/22 02:58:25;;;;;;;7.60;4.50;;;;;;;10.14;100.00;100640.91;5035241;28;20563;-65
2023/04/22 03:00:53;;;;;;;6.60;4.82;;;;;;;10.10;100.00;100629.75;5037172;28;20069;-63
2023/04/22 03:03:21;;;;;;;7.68;4.45;;;;;;;10.08;100.00;100629.19;5046488;28;20057;-63
2023/04/22 03:05:49;;;;;;;7.60;4.85;;;;;;;10.06;100.00;100627.81;5034784;28;20099;-64
2023/04/22 03:08:17;;;;;;;8.10;4.57;;;;;;;10.07;100.00;100630.25;5035720;28;20427;-65
2023/04/22 03:10:45;;;;;;;7.00;4.88;;;;;;;10.09;100.00;100622.66;5034918;28;20049;-64
2023/04/22 03:13:13;;;;;;;8.32;4.95;;;;;;;10.14;100.00;100628.09;5016802;28;20089;-64
2023/04/22 03:15:41;;;;;;;7.43;4.78;;;;;;;10.19;100.00;100628.09;4999101;28;20042;-64
2023/04/22 03:18:09;;;;;;;8.25;4.97;;;;;;;10.22;100.00;100633.03;5040081;28;20050;-64
2023/04/22 03:20:38;;;;;;;9.27;5.10;;;;;;;10.23;100.00;100634.66;5037834;28;20041;-64
2023/04/22 03:23:06;;;;;;;13.50;5.40;;;;;;;10.24;100.00;100624.56;5054481;28;20518;-64
2023/04/22 03:25:36;;;;;;;8.65;5.53;;;;;;;10.22;100.00;100632.19;5035013;28;20160;-62
2023/04/22 03:28:04;;;;;;;7.72;5.30;;;;;;;10.21;100.00;100636.00;5038055;28;20049;-62
2023/04/22 03:30:32;;;;;;;7.85;5.47;;;;;;;10.15;100.00;100635.19;5033749;28;20485;-62
2023/04/22 03:33:00;;;;;;;8.30;5.25;;;;;;;10.13;100.00;100617.50;5036202;28;20084;-62
2023/04/22 03:35:36;;;;;;;;;;;;;;;10.13;100.00;100623.75;5035523;28;20084;-62
2023/04/22 03:38:04;;;;;;;8.52;5.00;;;;;;;10.14;100.00;100622.66;5055626;28;20266;-64
2023/04/22 03:40:35;;;;;;;8.52;5.78;;;;;;;10.16;100.00;100612.31;5054203;28;20041;-63
2023/04/22 03:43:10;;;;;;;8.85;5.45;;;;;;;10.14;100.00;100608.22;5049126;28;20076;-62
2023/04/22 03:45:38;;;;;;;11.48;5.55;;;;;;;10.10;100.00;100607.97;5030837;28;20041;-63
2023/04/22 03:48:16;;;;;;;8.18;5.22;;;;;;;10.07;100.00;100613.94;5018605;28;20120;-62
2023/04/22 03:50:48;;;;;;;9.80;6.38;;;;;;;10.08;100.00;100601.13;5033973;28;20103;-64
2023/04/22 03:53:16;;;;;;;9.18;5.78;;;;;;;10.05;100.00;100593.50;5017002;28;20136;-62
2023/04/22 03:55:44;;;;;;;9.57;5.88;;;;;;;10.00;100.00;100599.75;5044136;28;20057;-63
2023/04/22 03:58:14;;;;;;;10.15;6.10;;;;;;;9.95;100.00;100595.13;5001067;28;20059;-63
2023/04/22 04:00:42;;;;;;;9.77;6.10;;;;;;;9.91;100.00;100598.66;5033144;28;20045;-66
2023/04/22 04:03:15;;;;;;;9.77;6.38;;;;;;;9.88;100.00;100588.31;5043790;28;20076;-65
2023/04/22 04:05:47;;;;;;;9.55;6.10;;;;;;;9.87;100.00;100589.41;5040139;28;20045;-65
2023/04/22 04:08:15;;;;;;;10.65;6.63;;;;;;;9.85;100.00;100591.56;5031197;28;20111;-64
2023/04/22 04:10:43;;;;;;;10.73;6.50;;;;;;;9.85;100.00;100588.84;5048508;28;20050;-65
2023/04/22 04:13:12;;;;;;;8.52;6.13;;;;;;;9.87;100.00;100595.66;5033754;28;20059;-65
2023/04/22 04:15:51;;;;;;;10.88;6.40;;;;;;;9.93;100.00;100596.47;5046584;28;20041;-65
2023/04/22 04:18:20;;;;;;;9.25;6.35;;;;;;;10.01;100.00;100587.81;5023341;28;20276;-63
2023/04/22 04:20:49;;;;;;;10.90;6.57;;;;;;;10.02;100.00;100575.81;5033189;28;20038;-63
2023/04/22 04:23:17;;;;;;;12.00;7.15;;;;;;;10.00;100.00;100570.63;5032627;28;20072;-62
2023/04/22 04:25:46;;;;;;;11.02;6.53;;;;;;;9.99;100.00;100585.34;5029230;28;20046;-63
2023/04/22 04:28:16;;;;;;;10.95;6.00;;;;;;;10.01;100.00;100579.63;4997438;28;20108;-63
2023/04/22 04:30:44;;;;;;;9.57;6.53;;;;;;;10.03;100.00;100580.19;5013152;28;20107;-64
2023/04/22 04:33:12;;;;;;;9.68;7.07;;;;;;;10.02;100.00;100583.97;5020860;28;20053;-64
2023/04/22 04:35:43;;;;;;;10.63;6.65;;;;;;;9.98;100.00;100585.59;5031960;28;20490;-64
2023/04/22 04:38:15;;;;;;;11.60;6.65;;;;;;;9.97;100.00;100586.69;5032274;28;20553;-62
2023/04/22 04:40:44;;;;;;;11.77;7.75;;;;;;;9.94;100.00;100577.16;5016410;28;20061;-64
2023/04/22 04:43:19;;;;;;;10.48;7.70;;;;;;;9.87;100.00;100583.97;5032382;28;20568;-63
2023/04/22 04:45:52;;;;;;;11.70;7.40;;;;;;;9.76;100.00;100583.91;5031472;28;20111;-64
2023/04/22 04:48:27;;;;;;;10.55;8.10;;;;;;;9.72;100.00;100591.00;5016571;28;20510;-63
2023/04/22 04:51:00;;;;;;;12.25;8.68;;;;;;;9.72;100.00;100588.28;5032856;28;20068;-63
2023/04/22 04:53:32;;;;;;;11.43;8.07;;;;;;;9.78;100.00;100587.19;5049142;28;20045;-62
2023/04/22 04:56:00;;;;;;;12.70;8.30;;;;;;;9.81;100.00;100578.50;5016892;28;20049;-63
2023/04/22 04:58:29;;;;;;;10.82;7.82;;;;;;;9.81;100.00;100583.97;5047745;28;20482;-63
2023/04/22 05:01:19;;;;;;;11.57;7.82;;;;;;;9.80;100.00;100581.50;5031568;28;20036;-64
2023/04/22 05:03:47;;;;;;;12.88;8.73;;;;;;;9.76;100.00;100575.75;5019600;28;20037;-65
2023/04/22 05:06:17;;;;;;;12.82;8.50;;;;;;;9.71;100.00;100585.81;5019893;28;20091;-64
2023/04/22 05:08:49;;;;;;;13.77;8.55;;;;;;;9.69;100.00;100591.53;5026893;28;20136;-61
2023/04/22 05:11:18;;;;;;;12.98;8.73;;;;;;;9.72;100.00;100591.00;5044394;28;20102;-62
2023/04/22 05:13:49;;;;;;;11.98;8.85;;;;;;;9.70;100.00;100587.72;5034834;28;20045;-62
2023/04/22 05:16:23;;;;;;;12.73;8.27;;;;;;;9.75;100.00;100590.47;5060386;28;20044;-62
2023/04/22 05:18:51;;;;;;;13.20;8.05;;;;;;;9.78;100.00;100587.19;5052643;28;20048;-62
2023/04/22 05:21:19;;;;;;;11.02;8.73;;;;;;;9.73;100.00;100591.81;5044524;28;20140;-62
2023/04/22 05:23:47;;;;;;;14.90;9.52;;;;;;;9.67;100.00;100592.88;5049034;28;20088;-63
2023/04/22 05:26:16;;;;;;;16.42;9.43;;;;;;;9.65;100.00;100592.34;5050430;28;20103;-65
2023/04/22 05:28:47;;;;;;;13.10;10.30;;;;;;;9.62;100.00;100590.97;5035702;28;20052;-63
2023/04/22 05:31:16;;;;;;;13.70;9.85;;;;;;;9.59;100.00;100583.34;5046598;28;20072;-63
2023/04/22 05:33:44;;;;;;;13.93;10.05;;;;;;;9.57;100.00;100580.06;5017276;28;20045;-63
2023/04/22 05:36:12;;;;;;;13.88;9.68;;;;;;;9.57;100.00;100582.78;5050327;28;20130;-65
2023/04/22 05:38:41;;;;;;;12.35;9.48;;;;;;;9.61;100.00;100578.44;5049303;28;20412;-64
2023/04/22 05:41:11;;;;;;;14.23;10.10;;;;;;;9.68;100.00;100579.00;5027978;28;20081;-64
2023/04/22 05:43:38;;;;;;;15.13;9.95;;;;;;;9.74;100.00;100579.84;5013148;28;20081;-65
2023/04/22 05:46:11;;;;;;;14.65;9.77;;;;;;;9.81;100.00;100573.06;5046876;28;20061;-65
2023/04/22 05:48:40;;;;;;;14.63;10.52;;;;;;;9.84;100.00;100577.16;5035281;28;20079;-63
2023/04/22 05:51:18;;;;;;;13.00;9.50;;;;;;;9.84;100.00;100576.31;5033734;28;20044;-63
2023/04/22 05:53:45;;;;;;;13.85;10.07;;;;;;;9.85;100.00;100576.06;5000113;28;20053;-64
2023/04/22 05:56:13;;;;;;;14.60;10.05;;;;;;;9.89;100.00;100584.50;5031847;28;20045;-64
2023/04/22 05:58:41;;;;;;;15.38;10.30;;;;;;;9.93;100.00;100571.97;5031508;28;20423;-65
2023/04/22 06:01:12;;;;;;;13.60;10.32;;;;;;;9.97;100.00;100575.81;5039360;28;20041;-65
2023/04/22 06:03:52;;;;;;;16.98;10.98;;;;;;;10.00;100.00;100578.78;5052964;28;20049;-65
2023/04/22 06:06:20;;;;;;;15.95;10.77;;;;;;;9.98;100.00;100572.00;5015373;28;20052;-65
2023/04/22 06:08:48;;;;;;;15.27;11.18;;;;;;;9.99;100.00;100579.09;5032706;28;20089;-63
2023/04/22 06:11:15;;;;;;;13.85;11.02;;;;;;;9.99;100.00;100579.09;5035034;28;20049;-65
2023/04/22 06:13:43;;;;;;;20.48;11.65;;;;;;;10.02;100.00;100573.91;5042012;28;20037;-65
2023/04/22 06:16:11;;;;;;;17.75;11.90;;;;;;;10.03;100.00;100569.28;5032501;28;20065;-66
2023/04/22 06:18:39;;;;;;;17.50;12.27;;;;;;;10.02;100.00;100564.91;5035621;28;20045;-66
2023/04/22 06:21:11;;;;;;;16.75;12.48;;;;;;;10.01;100.00;100560.59;5057606;28;20124;-66
2023/04/22 06:23:39;;;;;;;17.85;13.82;;;;;;;10.01;100.00;100561.38;5012083;28;20049;-65
2023/04/22 06:26:07;;;;;;;19.10;14.73;;;;;;;9.99;100.00;100558.13;5050827;28;20045;-63
2023/04/22 06:28:36;;;;;;;20.95;15.18;;;;;;;9.99;100.00;100554.59;5045891;28;20064;-64
2023/04/22 06:31:09;;;;;;;20.88;15.40;;;;;;;10.00;100.00;100556.22;5046759;28;20041;-65
2023/04/22 06:33:38;;;;;;;21.30;15.63;;;;;;;10.03;100.00;100552.97;5043472;28;20057;-65
2023/04/22 06:36:06;;;;;;;22.35;15.80;;;;;;;10.07;100.00;100550.50;5026374;28;20069;-65
2023/04/22 06:38:35;;;;;;;20.92;15.55;;;;;;;10.08;100.00;100552.97;5040722;28;20045;-66
2023/04/22 06:41:23;;;;;;;21.42;15.93;;;;;;;10.13;100.00;100550.25;5055797;28;20081;-66
2023/04/22 06:43:54;;;;;;;20.30;16.02;;;;;;;10.20;100.00;100545.34;5035927;28;20056;-65
2023/04/22 06:46:51;;;;;;;18.75;14.30;;;;;;;10.29;100.00;100555.72;5031621;28;20053;-64
2023/04/22 06:49:38;;;;;;;24.60;16.27;;;;;;;10.35;100.00;100557.34;5035495;28;20053;-63
2023/04/22 06:52:29;;;;;;;22.35;16.80;;;;;;;10.37;100.00;100555.19;5055300;28;20128;-65
2023/04/22 06:54:58;;;;;;;20.35;16.38;;;;;;;10.39;100.00;100559.25;5035259;28;20561;-64
2023/04/22 06:57:26;;;;;;;21.42;15.88;;;;;;;10.44;100.00;100544.81;5019193;28;20100;-63
2023/04/22 06:59:54;;;;;;;20.77;16.67;;;;;;;10.50;100.00;100540.19;5035797;28;20148;-65
2023/04/22 07:02:24;;;;;;;23.10;17.83;;;;;;;10.53;100.00;100537.72;5034749;28;20061;-65
2023/04/22 07:04:51;;;;;;;19.95;16.83;;;;;;;10.57;100.00;100536.06;5036161;28;20057;-66
2023/04/22 07:07:19;;;;;;;21.40;16.80;;;;;;;10.61;100.00;100531.72;5034432;28;20045;-66
2023/04/22 07:09:47;;;;;;;24.70;17.35;;;;;;;10.64;100.00;100536.59;5034237;28;20095;-64
2023/04/22 07:12:15;;;;;;;20.85;17.10;;;;;;;10.69;100.00;100537.69;5035901;28;20045;-64
2023/04/22 07:14:47;;;;;;;23.05;17.55;;;;;;;10.73;100.00;100545.06;5038175;28;20048;-64
2023/04/22 07:17:18;;;;;;;23.83;18.63;;;;;;;10.76;100.00;100544.50;5038226;28;20497;-66
2023/04/22 07:19:45;;;;;;;24.73;18.95;;;;;;;10.80;100.00;100545.59;5037586;28;20041;-65
2023/04/22 07:22:13;;;;;;;24.05;16.90;;;;;;;10.83;100.00;100536.03;5047838;28;20041;-64
2023/04/22 07:24:41;;;;;;;25.40;17.98;;;;;;;10.87;100.00;100542.53;5050908;28;20045;-65
2023/04/22 07:27:09;;;;;;;26.20;19.50;;;;;;;10.88;100.00;100538.75;5031204;28;20088;-65
2023/04/22 07:29:36;;;;;;;25.67;20.10;;;;;;;10.88;100.00;100536.00;5035026;28;20409;-64
2023/04/22 07:32:05;;;;;;;22.38;18.67;;;;;;;10.88;100.00;100530.56;5035790;28;20494;-66
2023/04/22 07:34:33;;;;;;;22.55;18.95;;;;;;;10.88;100.00;100528.66;5036151;28;20099;-66
2023/04/22 07:37:01;;;;;;;21.02;17.40;;;;;;;10.91;100.00;100534.66;5036342;28;20049;-65
2023/04/22 07:39:28;;;;;;;24.67;19.35;;;;;;;10.93;100.00;100525.09;5064882;28;20033;-65
2023/04/22 07:41:56;;;;;;;24.80;19.23;;;;;;;10.96;100.00;100542.81;5036181;28;20053;-66
2023/04/22 07:44:24;;;;;;;24.50;19.02;;;;;;;10.96;100.00;100535.44;5046291;28;20053;-64
2023/04/22 07:46:52;;;;;;;25.38;18.88;;;;;;;10.99;100.00;100544.97;5054754;28;20123;-65
2023/04/22 07:49:20;;;;;;;26.65;18.65;;;;;;;11.01;100.00;100537.34;5048044;28;20045;-65
2023/04/22 07:51:48;;;;;;;29.08;19.50;;;;;;;11.03;100.00;100543.31;5035542;28;20088;-66
2023/04/22 07:54:16;;;;;;;23.30;18.80;;;;;;;11.05;100.00;100532.97;5034302;28;20478;-65
2023/04/22 07:56:43;;;;;;;19.25;15.98;;;;;;;11.12;100.00;100538.13;5035838;28;20490;-65
2023/04/22 07:59:11;;;;;;;18.35;14.57;;;;;;;11.16;100.00;100539.19;5037325;28;20362;-65
2023/04/22 08:01:39;;;;;;;17.95;14.52;;;;;;;11.20;100.00;100543.78;5052011;28;20084;-66
2023/04/22 08:04:06;;;;;;;19.27;14.45;;;;;;;11.23;100.00;100536.97;5055540;28;20041;-65
2023/04/22 08:06:35;;;;;;;19.45;13.68;;;;;;;11.26;100.00;100525.53;5055259;28;20388;-64
2023/04/22 08:09:03;;;;;;;19.83;14.35;;;;;;;11.31;100.00;100514.59;5048903;28;20127;-66
2023/04/22 08:11:30;;;;;;;16.83;12.75;;;;;;;11.35;100.00;100509.38;5036437;28;21828;-67
2023/04/22 08:13:58;;;;;;;17.20;11.88;;;;;;;11.39;100.00;100516.72;5037226;28;20171;-64
2023/04/22 08:16:26;;;;;;;17.25;13.07;;;;;;;11.45;100.00;100507.41;5033118;28;20057;-64
2023/04/22 08:18:55;;;;;;;18.75;13.27;;;;;;;11.49;100.00;100511.19;5033496;28;20049;-66
2023/04/22 08:21:22;;;;;;;16.33;12.00;;;;;;;11.54;100.00;100498.63;5033810;28;20116;-68
2023/04/22 08:23:51;;;;;;;22.65;13.73;;;;;;;11.59;100.00;100502.13;5034106;28;20104;-65
2023/04/22 08:26:18;;;;;;;19.02;12.13;;;;;;;11.64;100.00;100484.91;5042159;28;20121;-67
2023/04/22 08:28:46;;;;;;;15.93;11.65;;;;;;;11.68;100.00;100485.97;5032726;28;20056;-64
2023/04/22 08:31:14;;;;;;;16.90;12.23;;;;;;;11.72;100.00;100490.59;5014892;28;20470;-66
2023/04/22 08:33:42;;;;;;;15.45;11.60;;;;;;;11.78;100.00;100488.63;5015911;28;20054;-64
2023/04/22 08:36:10;;;;;;;17.35;10.45;;;;;;;11.84;100.00;100498.44;5033519;28;20037;-65
2023/04/22 08:38:37;;;;;;;17.23;10.18;;;;;;;11.94;100.00;100495.63;5034614;28;20432;-64
2023/04/22 08:41:06;;;;;;;16.33;10.38;;;;;;;12.02;100.00;100502.41;5032449;28;20057;-65
2023/04/22 08:43:33;;;;;;;14.43;10.52;;;;;;;12.09;100.00;100489.22;5033931;28;20493;-66
2023/04/22 08:46:01;;;;;;;15.52;10.95;;;;;;;12.12;100.00;100490.56;5027076;28;20147;-66
2023/04/22 08:48:29;;;;;;;14.65;9.13;;;;;;;12.11;100.00;100487.03;5054079;28;20048;-63
2023/04/22 08:50:57;;;;;;;12.10;8.45;;;;;;;12.13;100.00;100489.50;5040867;28;20486;-64
2023/04/22 08:53:25;;;;;;;12.27;9.52;;;;;;;12.15;100.00;100492.75;5016274;28;20429;-65
2023/04/22 08:55:55;;;;;;;14.55;10.00;;;;;;;12.20;100.00;100476.31;5033593;28;20117;-66
2023/04/22 08:58:23;;;;;;;16.48;10.10;;;;;;;12.29;100.00;100471.03;5032931;28;20111;-66
2023/04/22 09:00:51;;;;;;;14.63;9.82;;;;;;;12.34;100.00;100458.16;5032814;28;20049;-65
2023/04/22 09:03:19;;;;;;;12.45;8.93;;;;;;;12.42;100.00;100450.44;5039682;28;20073;-65
2023/04/22 09:05:48;;;;;;;15.73;9.88;;;;;;;12.48;100.00;100454.72;5035897;28;20120;-64
2023/04/22 09:08:16;;;;;;;14.00;9.23;;;;;;;12.53;100.00;100460.13;5050396;28;20052;-66
2023/04/22 09:10:44;;;;;;;12.48;9.02;;;;;;;12.57;100.00;100456.53;5026060;28;20370;-65
2023/04/22 09:13:13;;;;;;;12.23;9.07;;;;;;;12.62;100.00;100461.13;5033340;28;20077;-64
2023/04/22 09:15:41;;;;;;;13.15;8.50;;;;;;;12.67;100.00;100454.78;5034873;28;20107;-66
2023/04/22 09:18:09;;;;;;;14.68;8.75;;;;;;;12.71;100.00;100445.72;5040923;28;20122;-65
2023/04/22 09:20:41;;;;;;;14.25;8.10;;;;;;;12.75;100.00;100451.44;5024969;28;20056;-64
2023/04/22 09:23:11;;;;;;;27.23;10.82;;;;;;;12.79;100.00;100441.53;5038410;28;20053;-65
2023/04/22 09:25:41;;;;;;;12.55;8.25;;;;;;;12.86;100.00;100446.63;5044718;28;20055;-65
2023/04/22 09:28:17;;;;;;;12.52;7.82;;;;;;;12.85;100.00;100445.84;5034374;28;20045;-66
2023/04/22 09:30:46;;;;;;;11.15;7.82;;;;;;;12.86;100.00;100446.63;5011560;28;20104;-65
2023/04/22 09:33:14;;;;;;;23.52;10.55;;;;;;;12.90;100.00;100447.69;5012827;28;20390;-64
2023/04/22 09:35:42;;;;;;;14.10;7.95;;;;;;;12.94;100.00;100444.09;5058013;28;20053;-64
2023/04/22 09:38:11;;;;;;;12.73;7.25;;;;;;;13.02;100.00;100445.34;5042300;28;20095;-65
2023/04/22 09:40:42;;;;;;;13.75;7.57;;;;;;;13.10;100.00;100436.47;5034740;28;20042;-66
2023/04/22 09:43:10;;;;;;;12.82;7.70;;;;;;;13.17;100.00;100442.38;5032402;28;20049;-65
2023/04/22 09:45:40;;;;;;;29.05;9.57;;;;;;;13.21;100.00;100437.97;5032322;28;20067;-65
2023/04/22 09:48:10;;;;;;;17.27;8.55;;;;;;;13.25;100.00;100437.38;5050643;28;20136;-65
2023/04/22 09:50:40;;;;;;;15.07;8.35;;;;;;;13.28;100.00;100431.34;5037637;28;20486;-65
2023/04/22 09:53:09;;;;;;;15.70;8.45;;;;;;;13.36;100.00;100426.00;5031062;28;20076;-64
2023/04/22 09:55:40;;;;;;;12.25;7.53;;;;;;;13.43;100.00;100433.84;5030777;28;20497;-67
2023/04/22 09:58:15;;;;;;;13.32;7.43;;;;;;;13.52;100.00;100423.06;5034813;28;20077;-64
2023/04/22 10:00:46;;;;;;;10.63;7.20;;;;;;;13.58;100.00;100435.53;5030918;28;20055;-63
2023/04/22 10:03:14;;;;;;;12.75;7.28;;;;;;;13.63;100.00;100436.25;5032818;28;20056;-65
2023/04/22 10:05:44;;;;;;;11.10;7.45;;;;;;;13.68;100.00;100434.56;5032994;28;20075;-65
2023/04/22 10:08:13;;;;;;;11.85;7.35;;;;;;;13.76;100.00;100428.44;5038604;28;20089;-64
2023/04/22 10:10:41;;;;;;;10.60;6.30;;;;;;;13.76;100.00;100431.97;5053377;28;20405;-64
2023/04/22 10:13:09;;;;;;;14.90;7.00;;;;;;;13.77;100.00;100439.06;5042992;28;20060;-64
2023/04/22 10:15:43;;;;;;;10.68;7.10;;;;;;;13.85;100.00;100424.72;5033437;28;20076;-64
2023/04/22 10:18:18;;;;;;;11.23;7.07;;;;;;;13.93;100.00;100436.09;5016284;28;20052;-63
2023/04/22 10:20:46;;;;;;;13.40;7.55;;;;;;;14.01;100.00;100433.47;5021497;28;20052;-66
2023/04/22 10:23:22;;;;;;;12.98;8.18;;;;;;;14.09;99.71;100439.38;5059451;28;20084;-65
2023/04/22 10:25:54;;;;;;;15.05;7.95;;;;;;;14.08;100.00;100433.06;5036627;28;20555;-63
2023/04/22 10:28:23;;;;;;;12.18;7.65;;;;;;;14.09;100.00;100440.16;5033956;28;20064;-64
2023/04/22 10:30:51;;;;;;;10.88;6.28;;;;;;;14.13;99.61;100437.66;5051111;28;20077;-64
2023/04/22 10:33:30;;;;;;;10.48;7.00;;;;;;;14.14;98.93;100436.53;5064827;28;20057;-65
2023/04/22 10:36:08;;;;;;;11.55;6.85;;;;;;;14.21;100.00;100439.69;5043250;28;20057;-63
2023/04/22 10:38:54;;;;;;;12.35;7.28;;;;;;;14.33;99.79;100450.97;4681940;28;10000603;-64
2023/04/22 10:41:23;;;;;;;11.23;7.28;;;;;;;14.41;98.54;100449.47;5023315;28;20058;-66
2023/04/22 10:43:58;;;;;;;12.40;7.10;;;;;;;14.40;97.44;100451.38;5030932;28;20548;-65
2023/04/22 10:46:44;;;;;;;11.98;6.85;;;;;;;14.42;96.71;100442.88;5033207;28;20056;-66
2023/04/22 10:49:23;;;;;;;14.20;7.45;;;;;;;14.45;99.91;100442.25;5046454;28;20556;-66
2023/04/22 10:51:58;;;;;;;13.07;6.95;;;;;;;14.52;99.84;100441.88;5036900;28;20128;-67
2023/04/22 10:54:26;;;;;;;10.52;6.57;;;;;;;14.58;97.51;100435.22;5013115;28;20056;-65
2023/04/22 10:57:15;;;;;;;11.90;6.78;;;;;;;14.61;97.39;100435.41;5030215;28;20441;-67
2023/04/22 10:59:46;;;;;;;10.63;6.30;;;;;;;14.63;98.27;100426.88;5049949;28;20499;-66
2023/04/22 11:02:17;;;;;;;11.70;6.45;;;;;;;14.62;97.17;100425.22;5039253;28;20054;-64
2023/04/22 11:04:45;;;;;;;11.07;6.90;;;;;;;14.62;98.61;100419.75;5030829;28;20125;-69
2023/04/22 11:07:21;;;;;;;11.82;6.40;;;;;;;14.64;97.01;100417.53;5031621;28;20054;-64
2023/04/22 11:10:04;;;;;;;14.88;6.68;;;;;;;14.64;97.20;100423.81;5033139;28;20563;-64
2023/04/22 11:12:34;;;;;;;9.98;6.05;;;;;;;14.65;96.59;100428.19;5032724;28;20046;-66
2023/04/22 11:15:06;;;;;;;12.73;5.95;;;;;;;14.64;96.78;100429.28;5038624;28;20076;-66
2023/04/22 11:17:35;;;;;;;10.38;6.05;;;;;;;14.63;97.55;100429.63;5018355;28;20053;-65
2023/04/22 11:20:04;;;;;;;10.32;6.35;;;;;;;14.60;95.75;100421.97;5014654;28;20465;-68
2023/04/22 11:22:35;;;;;;;9.85;5.65;;;;;;;14.57;97.48;100428.09;5033936;28;20120;-66